createdAt,value
2023-05-21T00:01:25.653Z,17.10
2023-05-21T00:03:52.293Z,17.11
2023-05-21T00:06:20.807Z,17.10
2023-05-21T00:08:47.391Z,17.08
2023-05-21T00:11:13.877Z,17.02
2023-05-21T00:13:40.334Z,17.07
2023-05-21T00:16:07.143Z,17.03
2023-05-21T00:18:34.492Z,16.98
2023-05-21T00:21:01.747Z,17.03
2023-05-21T00:23:28.377Z,16.97
2023-05-21T00:25:54.867Z,16.99
2023-05-21T00:28:21.374Z,17.03
2023-05-21T00:30:47.846Z,16.94
2023-05-21T00:33:14.721Z,16.97
2023-05-21T00:35:41.277Z,16.98
2023-05-21T00:38:08.526Z,17.01
2023-05-21T00:40:35.865Z,17.03
2023-05-21T00:43:02.632Z,16.97
2023-05-21T00:45:29.571Z,16.95
2023-05-21T00:47:56.412Z,17.01
2023-05-21T00:50:23.228Z,16.94
2023-05-21T00:52:50.069Z,16.89
2023-05-21T00:55:16.562Z,16.91
2023-05-21T00:57:43.134Z,16.85
2023-05-21T01:00:10.765Z,16.88
2023-05-21T01:02:38.097Z,16.76
2023-05-21T01:05:08.287Z,16.81
2023-05-21T01:07:36.494Z,16.84
2023-05-21T01:10:04.260Z,16.83
2023-05-21T01:12:32.047Z,16.76
2023-05-21T01:15:00.329Z,16.85
2023-05-21T01:17:28.647Z,16.84
2023-05-21T01:19:59.894Z,16.84
2023-05-21T01:22:28.827Z,16.84
2023-05-21T01:25:24.098Z,16.73
2023-05-21T01:27:55.581Z,16.66
2023-05-21T01:30:24.701Z,16.59
2023-05-21T01:33:52.653Z,16.48
2023-05-21T01:36:35.834Z,16.47
2023-05-21T04:58:41.972Z,15.94
2023-05-21T05:01:10.787Z,15.91
2023-05-21T05:03:43.874Z,15.73
2023-05-21T05:06:31.254Z,15.70
2023-05-21T05:09:28.688Z,16.03
2023-05-21T05:11:55.566Z,16.03
2023-05-21T05:14:22.606Z,16.13
2023-05-21T05:16:49.618Z,15.71
2023-05-21T05:19:23.855Z,16.08
2023-05-21T05:21:51.944Z,15.85
2023-05-21T05:24:18.795Z,16.06
2023-05-21T05:26:45.433Z,16.10
2023-05-21T05:29:11.871Z,16.25
2023-05-21T05:31:39.507Z,16.12
2023-05-21T05:34:06.043Z,16.18
2023-05-21T05:36:34.178Z,16.02
2023-05-21T05:39:01.065Z,15.93
2023-05-21T05:41:27.712Z,15.99
2023-05-21T05:43:54.143Z,16.05
2023-05-21T05:46:20.574Z,15.82
2023-05-21T05:48:47.538Z,16.36
2023-05-21T05:51:15.412Z,16.44
2023-05-21T05:53:41.968Z,16.02
2023-05-21T05:56:08.548Z,16.38
2023-05-21T05:58:35.057Z,16.01
2023-05-21T06:01:02.013Z,15.95
2023-05-21T06:03:29.664Z,16.11
2023-05-21T06:05:56.367Z,16.03
2023-05-21T06:08:23.368Z,16.01
2023-05-21T06:10:49.946Z,16.43
2023-05-21T06:13:16.381Z,16.18
2023-05-21T06:15:45.653Z,16.16
2023-05-21T06:18:12.141Z,16.45
2023-05-21T06:20:38.635Z,16.48
2023-05-21T06:23:06.468Z,16.41
2023-05-21T06:25:32.977Z,16.27
2023-05-21T06:27:59.400Z,16.31
2023-05-21T06:30:25.925Z,16.21
2023-05-21T06:32:52.504Z,16.31
2023-05-21T06:35:19.184Z,16.36
2023-05-21T06:37:46.148Z,16.66
2023-05-21T06:40:12.773Z,16.89
2023-05-21T06:42:39.286Z,16.86
2023-05-21T06:45:06.294Z,17.22
2023-05-21T06:47:32.781Z,17.27
2023-05-21T06:49:59.788Z,17.00
2023-05-21T06:52:29.203Z,17.15
2023-05-21T06:54:55.632Z,17.45
2023-05-21T06:57:22.044Z,17.52
2023-05-21T06:59:48.500Z,17.55
2023-05-21T07:02:15.052Z,17.64
2023-05-21T07:04:41.589Z,18.00
2023-05-21T07:07:08.036Z,18.28
2023-05-21T07:09:34.528Z,17.63
2023-05-21T07:12:02.181Z,17.84
2023-05-21T07:14:28.744Z,18.27
2023-05-21T07:16:55.412Z,18.22
2023-05-21T07:19:22.034Z,18.13
2023-05-21T07:21:49.229Z,18.15
2023-05-21T07:24:15.757Z,18.10
2023-05-21T07:26:42.418Z,18.16
2023-05-21T07:29:08.888Z,18.19
2023-05-21T07:31:35.616Z,18.35
2023-05-21T07:34:02.110Z,18.45
2023-05-21T07:36:29.527Z,18.43
2023-05-21T07:38:56.273Z,18.54
2023-05-21T07:41:22.730Z,18.60
2023-05-21T07:43:49.352Z,18.68
2023-05-21T07:46:15.909Z,18.67
2023-05-21T07:48:44.120Z,18.58
2023-05-21T07:51:11.545Z,18.71
2023-05-21T07:53:38.122Z,18.83
2023-05-21T07:56:04.796Z,18.76
2023-05-21T07:58:31.246Z,18.90
2023-05-21T08:00:58.506Z,19.05
2023-05-21T08:03:27.895Z,19.02
2023-05-21T08:05:54.562Z,19.20
2023-05-21T08:08:22.109Z,19.21
2023-05-21T08:10:48.608Z,19.29
2023-05-21T08:13:16.401Z,19.30
2023-05-21T08:15:43.126Z,19.35
2023-05-21T08:18:10.012Z,19.43
2023-05-21T08:20:36.673Z,19.47
2023-05-21T08:23:03.130Z,19.59
2023-05-21T08:25:29.960Z,19.67
2023-05-21T08:27:56.415Z,19.82
2023-05-21T08:30:22.997Z,19.67
2023-05-21T08:32:49.612Z,19.64
2023-05-21T08:35:16.528Z,19.87
2023-05-21T08:37:43.059Z,19.74
2023-05-21T08:40:11.364Z,20.00
2023-05-21T08:42:50.171Z,20.04
2023-05-21T08:45:23.761Z,20.01
2023-05-21T08:47:56.171Z,20.06
2023-05-21T08:50:24.858Z,20.23
2023-05-21T08:52:51.666Z,20.40
2023-05-21T08:55:18.557Z,20.31
2023-05-21T08:57:45.276Z,20.42
2023-05-21T09:00:12.275Z,20.51
2023-05-21T09:02:40.933Z,20.64
2023-05-21T09:05:09.215Z,20.62
2023-05-21T09:08:07.441Z,20.65
2023-05-21T09:10:39.000Z,20.80
2023-05-21T09:13:05.697Z,20.98
2023-05-21T09:15:32.549Z,21.31
2023-05-21T09:17:59.096Z,21.37
2023-05-21T09:20:26.879Z,21.52
2023-05-21T09:22:53.706Z,21.65
2023-05-21T09:25:24.907Z,21.66
2023-05-21T09:27:51.428Z,21.55
2023-05-21T09:30:20.878Z,21.64
2023-05-21T09:32:56.776Z,21.51
2023-05-21T09:35:23.566Z,21.56
2023-05-21T09:37:52.389Z,21.54
2023-05-21T09:40:20.393Z,21.44
2023-05-21T09:42:48.817Z,21.40
2023-05-21T09:45:28.413Z,21.55
2023-05-21T09:47:56.204Z,21.62
2023-05-21T09:50:24.644Z,21.78
2023-05-21T09:52:52.976Z,22.12
2023-05-21T09:55:22.696Z,22.62
2023-05-21T09:57:51.069Z,23.07
2023-05-21T10:00:27.213Z,23.28
2023-05-21T10:02:58.672Z,23.31
2023-05-21T10:05:28.171Z,23.68
2023-05-21T10:07:59.742Z,23.75
2023-05-21T10:10:28.034Z,23.97
2023-05-21T10:13:09.279Z,24.08
2023-05-21T10:15:44.858Z,24.53
2023-05-21T10:18:13.168Z,24.99
2023-05-21T10:20:40.130Z,25.00
2023-05-21T10:23:06.899Z,24.95
2023-05-21T10:25:33.664Z,24.97
2023-05-21T10:28:00.201Z,25.20
2023-05-21T10:30:27.305Z,25.46
2023-05-21T10:32:55.875Z,25.70
2023-05-21T10:35:23.136Z,25.84
2023-05-21T10:37:51.282Z,25.78
2023-05-21T10:40:18.229Z,25.89
2023-05-21T10:43:11.559Z,25.56
2023-05-21T10:45:56.337Z,25.40
2023-05-21T10:48:47.500Z,25.72
2023-05-21T10:51:29.428Z,25.60
2023-05-21T10:54:26.486Z,25.81
2023-05-21T10:57:14.735Z,26.18
2023-05-21T10:59:43.519Z,26.51
2023-05-21T11:02:11.815Z,26.49
2023-05-21T11:04:41.915Z,26.50
2023-05-21T11:07:08.484Z,26.32
2023-05-21T11:09:35.333Z,26.13
2023-05-21T11:12:03.071Z,25.78
2023-05-21T11:14:40.477Z,25.29
2023-05-21T11:17:15.913Z,25.12
2023-05-21T11:19:44.193Z,24.98
2023-05-21T11:22:23.609Z,24.58
2023-05-21T11:24:51.609Z,24.73
2023-05-21T11:27:36.477Z,24.30
2023-05-21T11:30:09.781Z,24.34
2023-05-21T11:32:40.899Z,24.48
2023-05-21T11:35:08.009Z,24.40
2023-05-21T11:37:34.998Z,24.23
2023-05-21T11:40:22.805Z,24.15
2023-05-21T11:42:53.249Z,23.79
2023-05-21T11:45:21.276Z,24.33
2023-05-21T11:47:49.444Z,24.34
2023-05-21T11:50:16.736Z,24.34
2023-05-21T11:52:43.913Z,23.90
2023-05-21T11:55:11.341Z,23.83
2023-05-21T11:57:41.749Z,23.96
2023-05-21T12:00:14.164Z,24.01
2023-05-21T12:03:01.232Z,23.34
2023-05-21T12:05:27.766Z,23.91
2023-05-21T12:07:55.449Z,24.30
2023-05-21T12:10:23.179Z,24.60
2023-05-21T12:12:54.852Z,24.62
2023-05-21T12:15:24.344Z,24.70
2023-05-21T12:17:52.803Z,25.14
2023-05-21T12:20:19.969Z,25.44
2023-05-21T12:22:48.792Z,25.80
2023-05-21T12:25:19.398Z,26.58
2023-05-21T12:27:46.711Z,26.97
2023-05-21T12:30:13.686Z,27.13
2023-05-21T12:32:46.510Z,27.63
2023-05-21T12:35:21.576Z,27.11
2023-05-21T12:37:50.562Z,27.28
2023-05-21T12:40:17.800Z,27.32
2023-05-21T12:42:44.576Z,27.42
2023-05-21T12:45:11.592Z,27.28
2023-05-21T12:47:38.380Z,27.14
2023-05-21T12:50:11.618Z,26.66
2023-05-21T12:52:40.378Z,26.90
2023-05-21T12:55:09.383Z,26.89
2023-05-21T12:57:38.620Z,26.94
2023-05-21T13:00:08.979Z,25.68
2023-05-21T13:02:39.641Z,26.91
2023-05-21T13:05:08.060Z,27.17
2023-05-21T13:07:36.423Z,27.66
2023-05-21T13:10:03.313Z,27.89
2023-05-21T13:12:31.072Z,28.52
2023-05-21T13:14:59.706Z,28.80
2023-05-21T13:17:27.495Z,28.70
2023-05-21T13:20:26.279Z,28.31
2023-05-21T13:22:53.232Z,28.52
2023-05-21T13:25:21.995Z,28.98
2023-05-21T13:27:49.365Z,28.71
2023-05-21T13:30:15.885Z,28.81
2023-05-21T13:32:42.994Z,29.06
2023-05-21T13:35:10.306Z,29.94
2023-05-21T13:37:36.890Z,30.30
2023-05-21T13:40:07.880Z,30.35
2023-05-21T13:42:34.938Z,30.75
2023-05-21T13:45:01.411Z,30.88
2023-05-21T13:47:28.206Z,30.83
2023-05-21T13:49:54.719Z,31.20
2023-05-21T13:52:21.684Z,31.38
2023-05-21T13:54:48.307Z,31.30
2023-05-21T13:57:15.454Z,31.63
2023-05-21T13:59:42.181Z,31.73
2023-05-21T14:02:09.889Z,31.72
2023-05-21T14:04:39.115Z,31.77
2023-05-21T14:07:07.041Z,31.87
2023-05-21T14:09:33.941Z,31.75
2023-05-21T14:12:01.436Z,31.71
2023-05-21T14:14:28.113Z,31.26
2023-05-21T14:16:54.747Z,31.42
2023-05-21T14:19:21.607Z,31.94
2023-05-21T14:21:48.266Z,31.94
2023-05-21T14:24:14.785Z,31.26
2023-05-21T14:26:41.396Z,31.08
2023-05-21T14:29:08.034Z,31.41
2023-05-21T14:31:34.634Z,31.12
2023-05-21T14:34:02.905Z,31.07
2023-05-21T14:36:29.926Z,30.85
2023-05-21T14:38:56.441Z,30.88
2023-05-21T14:41:26.832Z,30.85
2023-05-21T14:43:53.637Z,30.54
2023-05-21T14:46:20.238Z,30.59
2023-05-21T14:48:46.838Z,30.24
2023-05-21T14:51:13.725Z,30.25
2023-05-21T14:53:40.728Z,30.09
2023-05-21T14:56:07.766Z,29.90
2023-05-21T14:58:34.281Z,29.79
2023-05-21T15:01:00.912Z,29.95
2023-05-21T15:03:27.643Z,29.86
2023-05-21T15:05:54.265Z,30.09
2023-05-21T15:08:20.849Z,30.11
2023-05-21T15:10:47.459Z,29.62
2023-05-21T15:13:13.966Z,29.45
2023-05-21T15:15:40.789Z,29.47
2023-05-21T15:18:07.701Z,29.51
2023-05-21T15:20:34.285Z,29.33
2023-05-21T15:23:15.462Z,29.07
2023-05-21T15:25:43.690Z,28.96
2023-05-21T15:28:11.765Z,29.06
2023-05-21T15:30:38.234Z,28.74
2023-05-21T15:33:04.746Z,28.64
2023-05-21T15:35:31.373Z,28.20
2023-05-21T15:37:58.009Z,28.35
2023-05-21T15:40:26.240Z,27.98
2023-05-21T15:42:53.512Z,27.23
2023-05-21T15:45:20.142Z,27.86
2023-05-21T15:47:46.685Z,27.87
2023-05-21T15:50:13.250Z,27.94
2023-05-21T15:52:41.003Z,27.83
2023-05-21T15:55:07.915Z,27.89
2023-05-21T15:57:34.356Z,27.97
2023-05-21T16:00:00.825Z,27.92
2023-05-21T16:02:27.376Z,27.99
2023-05-21T16:04:53.954Z,27.69
2023-05-21T16:07:21.082Z,27.59
2023-05-21T16:09:47.624Z,27.61
2023-05-21T16:12:14.089Z,27.70
2023-05-21T16:14:40.615Z,27.90
2023-05-21T16:17:07.175Z,27.82
2023-05-21T16:19:33.828Z,27.93
2023-05-21T16:22:01.331Z,27.76
2023-05-21T16:24:27.822Z,27.47
2023-05-21T16:26:54.310Z,27.48
2023-05-21T16:29:22.155Z,27.44
2023-05-21T16:31:48.827Z,27.38
2023-05-21T16:34:15.751Z,27.31
2023-05-21T16:36:42.600Z,27.41
2023-05-21T16:39:09.291Z,27.29
2023-05-21T16:41:35.868Z,27.14
2023-05-21T16:44:02.427Z,27.11
2023-05-21T16:46:29.050Z,26.92
2023-05-21T16:48:55.664Z,26.69
2023-05-21T16:51:22.260Z,26.26
2023-05-21T16:53:48.906Z,25.98
2023-05-21T16:56:15.483Z,25.88
2023-05-21T16:58:41.947Z,25.69
2023-05-21T17:01:08.416Z,25.27
2023-05-21T17:03:35.120Z,25.13
2023-05-21T17:06:01.718Z,24.76
2023-05-21T17:08:28.229Z,24.61
2023-05-21T17:10:55.437Z,24.48
2023-05-21T17:13:23.045Z,24.49
2023-05-21T17:15:50.932Z,24.52
2023-05-21T17:18:17.770Z,24.29
2023-05-21T17:20:44.546Z,24.23
2023-05-21T17:23:11.885Z,24.23
2023-05-21T17:25:39.248Z,24.17
2023-05-21T17:28:06.302Z,24.20
2023-05-21T17:30:33.257Z,24.24
2023-05-21T17:33:01.870Z,24.17
2023-05-21T17:35:28.386Z,24.02
2023-05-21T17:37:55.136Z,23.93
2023-05-21T17:40:24.274Z,23.93
2023-05-21T17:42:51.944Z,23.85
2023-05-21T17:45:18.643Z,23.69
2023-05-21T17:47:45.263Z,23.70
2023-05-21T17:50:11.856Z,23.53
2023-05-21T17:52:38.336Z,23.50
2023-05-21T17:55:05.289Z,23.42
2023-05-21T17:57:31.879Z,23.23
2023-05-21T18:02:25.380Z,23.15
2023-05-21T18:04:51.882Z,23.17
2023-05-21T18:07:18.435Z,23.00
2023-05-21T18:09:44.941Z,23.05
2023-05-21T18:12:11.446Z,22.97
2023-05-21T18:14:38.060Z,22.90
2023-05-21T18:17:05.747Z,22.97
2023-05-21T18:19:32.675Z,22.87
2023-05-21T18:21:59.165Z,22.71
2023-05-21T18:24:25.855Z,22.64
2023-05-21T18:26:52.525Z,22.52
2023-05-21T18:29:19.039Z,22.43
2023-05-21T18:31:45.759Z,22.39
2023-05-21T18:34:12.362Z,22.31
2023-05-21T18:36:39.027Z,22.21
2023-05-21T18:39:07.006Z,22.25
2023-05-21T18:41:33.980Z,22.23
2023-05-21T18:44:01.765Z,22.18
2023-05-21T18:46:28.845Z,21.99
2023-05-21T18:48:56.071Z,21.99
2023-05-21T18:51:22.672Z,21.94
2023-05-21T18:53:49.227Z,21.91
2023-05-21T18:56:15.720Z,21.87
2023-05-21T18:58:42.335Z,21.85
2023-05-21T19:01:08.873Z,21.59
2023-05-21T19:03:35.464Z,21.54
2023-05-21T19:06:01.986Z,21.47
2023-05-21T19:08:28.463Z,21.46
2023-05-21T19:10:54.978Z,21.37
2023-05-21T19:13:21.971Z,21.21
2023-05-21T19:15:48.935Z,21.23
2023-05-21T19:18:17.146Z,21.15
2023-05-21T19:20:43.769Z,21.11
2023-05-21T19:23:10.524Z,20.99
2023-05-21T19:25:37.503Z,20.93
2023-05-21T19:28:04.004Z,20.83
2023-05-21T19:30:30.525Z,20.81
2023-05-21T19:32:57.095Z,20.78
2023-05-21T19:35:23.663Z,20.75
2023-05-21T19:37:50.219Z,20.70
2023-05-21T19:40:17.667Z,20.60
2023-05-21T19:42:44.621Z,20.53
2023-05-21T19:45:11.691Z,20.36
2023-05-21T19:47:40.995Z,20.29
2023-05-21T19:50:09.187Z,20.25
2023-05-21T19:52:37.521Z,20.23
2023-05-21T19:55:08.561Z,20.17
2023-05-21T19:57:35.022Z,20.12
2023-05-21T20:00:01.565Z,20.07
2023-05-21T20:02:31.423Z,20.01
2023-05-21T20:04:59.017Z,20.03
2023-05-21T20:07:25.848Z,20.03
2023-05-21T20:09:52.403Z,19.88
2023-05-21T20:12:19.217Z,19.85
2023-05-21T20:14:47.430Z,19.79
2023-05-21T20:17:14.636Z,19.75
2023-05-21T20:19:41.257Z,19.73
2023-05-21T20:22:07.870Z,19.69
2023-05-21T20:24:34.469Z,19.67
2023-05-21T20:27:01.696Z,19.64
2023-05-21T20:29:28.822Z,19.59
2023-05-21T20:31:55.627Z,19.58
2023-05-21T20:34:22.200Z,19.51
2023-05-21T20:36:49.548Z,19.46
2023-05-21T20:39:16.216Z,19.48
2023-05-21T20:41:44.785Z,19.46
2023-05-21T20:44:12.016Z,19.44
2023-05-21T20:46:39.117Z,19.37
2023-05-21T20:49:05.809Z,19.32
2023-05-21T20:51:32.648Z,19.25
2023-05-21T20:53:59.157Z,19.20
2023-05-21T20:56:40.048Z,19.16
2023-05-21T20:59:09.873Z,19.13
2023-05-21T21:01:37.887Z,19.11
2023-05-21T21:04:04.963Z,19.09
2023-05-21T21:06:31.818Z,19.05
2023-05-21T21:08:58.549Z,19.01
2023-05-21T21:11:25.176Z,18.90
2023-05-21T21:13:51.854Z,18.88
2023-05-21T21:16:18.659Z,18.89
2023-05-21T21:18:46.912Z,18.77
2023-05-21T21:21:13.678Z,18.81
2023-05-21T21:23:40.251Z,18.73
2023-05-21T21:26:07.092Z,18.71
2023-05-21T21:28:33.642Z,18.71
2023-05-21T21:31:00.238Z,18.64
2023-05-21T21:33:26.918Z,18.65
2023-05-21T21:35:53.506Z,18.58
2023-05-21T21:38:20.018Z,18.54
2023-05-21T21:40:46.499Z,18.54
2023-05-21T21:43:13.029Z,18.53
2023-05-21T21:45:39.541Z,18.53
2023-05-21T21:48:06.475Z,18.43
2023-05-21T21:50:33.017Z,18.47
2023-05-21T21:52:59.931Z,18.39
2023-05-21T21:55:26.528Z,18.40
2023-05-21T21:57:53.029Z,18.37
2023-05-21T22:00:19.704Z,18.40
2023-05-21T22:02:49.059Z,18.33
2023-05-21T22:05:15.654Z,18.30
2023-05-21T22:07:46.418Z,18.34
2023-05-21T22:10:16.657Z,18.27
2023-05-21T22:12:43.996Z,18.24
2023-05-21T22:15:22.907Z,18.12
2023-05-21T22:17:50.071Z,18.19
2023-05-21T22:20:17.724Z,18.18
2023-05-21T22:22:45.829Z,18.18
2023-05-21T22:25:12.441Z,18.03
2023-05-21T22:27:39.158Z,18.11
2023-05-21T22:30:06.339Z,18.11
2023-05-21T22:32:32.878Z,18.08
2023-05-21T22:34:59.424Z,18.07
2023-05-21T22:37:26.214Z,18.01
2023-05-21T22:39:52.846Z,18.02
2023-05-21T22:42:19.342Z,17.99
2023-05-21T22:44:45.855Z,17.97
2023-05-21T22:47:12.370Z,17.92
2023-05-21T22:49:40.678Z,17.95
2023-05-21T22:52:09.263Z,17.92
2023-05-21T22:54:35.899Z,17.87
2023-05-21T22:57:02.672Z,17.81
2023-05-21T22:59:29.343Z,17.81
2023-05-21T23:01:55.873Z,17.80
2023-05-21T23:04:35.625Z,17.74
2023-05-21T23:07:06.647Z,17.63
2023-05-21T23:09:33.159Z,17.67
2023-05-21T23:11:59.673Z,17.64
2023-05-21T23:14:26.385Z,17.57
2023-05-21T23:16:53.837Z,17.56
2023-05-21T23:19:21.126Z,17.51
2023-05-21T23:21:47.686Z,17.53
2023-05-21T23:24:15.292Z,17.53
2023-05-21T23:26:41.922Z,17.53
2023-05-21T23:29:08.415Z,17.42
2023-05-21T23:31:34.903Z,17.44
2023-05-21T23:34:02.751Z,17.38
2023-05-21T23:36:29.207Z,17.43
2023-05-21T23:38:55.671Z,17.40
2023-05-21T23:41:23.063Z,17.42
2023-05-21T23:43:50.361Z,17.39
2023-05-21T23:46:17.059Z,17.46
2023-05-21T23:48:43.659Z,17.52
2023-05-21T23:51:10.122Z,17.61
2023-05-21T23:53:36.583Z,17.68
2023-05-21T23:56:03.101Z,17.74
2023-05-21T23:58:29.571Z,17.73
